CheckWX is a tool to help pilots better visualize weather data.  It is not intended as a substitute for an official pre-flight weather briefing.

03:16:24 UTC

KGRB METAR
Green Bay-Austin Straubel International Airport
Green Bay, Wisconsin, USA
Current

23 mins ago

KGRB 270253Z 12005KT 10SM CLR 16/10 A3008 RMK AO2 SLP186 T01610100 53013
Observed
May-27 @ 02:53 UTC
Wind
  • 120° at 5 KTS
Visibility
10 SM
Flight Rules
VFR
Cloud Levels
  • Clear skies
Temperature
16°C / 61°F
Dewpoint
10°C / 50°F
Humidity
68%
Altimeter
30.08" Hg
Pressure
1018.62 hPa
Previous

1 hour ago

KGRB 270153Z AUTO 11006KT 10SM CLR 18/09 A3006 RMK AO2 SLP179 T01830094
Observed
May-27 @ 01:53 UTC
Wind
  • 110° at 6 KTS
Visibility
10 SM
Flight Rules
VFR
Cloud Levels
  • Clear skies
Temperature
18°C / 64°F
Dewpoint
C / 48°F
Humidity
56%
Altimeter
30.06" Hg
Pressure
1017.92 hPa
Previous

2 hours ago

KGRB 270053Z AUTO 15005KT 10SM CLR 21/11 A3004 RMK AO2 SLP173 T02060111
Observed
May-27 @ 00:53 UTC
Wind
  • 150° at 5 KTS
Visibility
10 SM
Flight Rules
VFR
Cloud Levels
  • Clear skies
Temperature
21°C / 70°F
Dewpoint
11°C / 52°F
Humidity
53%
Altimeter
30.04" Hg
Pressure
1017.32 hPa